createdAt,value
2023-02-06T00:04:53.114Z,7.20
2023-02-06T00:09:54.546Z,6.18
2023-02-06T00:14:56.001Z,7.35
2023-02-06T00:19:57.417Z,8.90
2023-02-06T00:24:58.863Z,8.57
2023-02-06T00:30:00.382Z,8.73
2023-02-06T00:35:01.928Z,6.50
2023-02-06T00:40:03.448Z,6.65
2023-02-06T00:45:05.892Z,6.30
2023-02-06T00:50:07.603Z,6.45
2023-02-06T00:55:09.084Z,5.95
2023-02-06T01:00:11.129Z,6.43
2023-02-06T01:05:12.563Z,5.97
2023-02-06T01:10:14.076Z,6.38
2023-02-06T01:15:15.618Z,7.20
2023-02-06T01:20:17.248Z,6.88
2023-02-06T01:25:18.780Z,6.80
2023-02-06T01:30:20.261Z,5.90
2023-02-06T01:35:21.727Z,7.03
2023-02-06T01:40:23.289Z,7.72
2023-02-06T01:45:39.912Z,6.40
2023-02-06T01:50:46.178Z,8.60
2023-02-06T01:55:49.657Z,5.85
2023-02-06T02:00:51.374Z,7.00
2023-02-06T02:05:57.166Z,6.97
2023-02-06T02:11:03.161Z,5.32
2023-02-06T02:16:20.208Z,7.53
2023-02-06T02:21:39.609Z,5.95
2023-02-06T02:32:59.697Z,5.40
2023-02-06T02:38:10.293Z,5.88
2023-02-06T02:43:28.440Z,6.18
2023-02-06T02:48:35.950Z,6.38
2023-02-06T02:53:37.506Z,6.07
2023-02-06T02:58:39.742Z,5.60
2023-02-06T03:03:44.927Z,6.53
2023-02-06T03:09:02.969Z,5.03
2023-02-06T03:14:21.998Z,6.28
2023-02-06T03:19:30.722Z,6.60
2023-02-06T03:24:38.001Z,6.28
2023-02-06T03:29:41.833Z,5.32
2023-02-06T03:34:53.679Z,3.95
2023-02-06T03:39:59.020Z,5.47
2023-02-06T03:45:06.364Z,6.32
2023-02-06T03:50:10.691Z,5.05
2023-02-06T03:55:21.718Z,4.50
2023-02-06T04:00:23.509Z,5.57
2023-02-06T04:05:25.411Z,5.78
2023-02-06T04:10:26.884Z,4.60
2023-02-06T04:15:28.356Z,5.40
2023-02-06T04:20:30.061Z,6.93
2023-02-06T04:25:31.510Z,5.70
2023-02-06T04:30:32.982Z,5.80
2023-02-06T04:35:34.633Z,6.18
2023-02-06T04:45:38.923Z,5.93
2023-02-06T04:50:40.422Z,4.88
2023-02-06T04:55:41.842Z,7.25
2023-02-06T05:00:43.266Z,6.80
2023-02-06T05:05:45.355Z,7.22
2023-02-06T05:10:46.961Z,6.90
2023-02-06T05:15:48.676Z,6.82
2023-02-06T05:20:50.118Z,6.55
2023-02-06T05:25:51.563Z,5.95
2023-02-06T05:30:53.478Z,4.65
2023-02-06T05:36:00.505Z,5.53
2023-02-06T05:41:01.973Z,5.30
2023-02-06T05:46:03.604Z,4.20
2023-02-06T05:51:05.293Z,6.40
2023-02-06T05:56:06.902Z,5.38
2023-02-06T06:01:08.356Z,5.40
2023-02-06T06:06:09.990Z,5.60
2023-02-06T06:11:11.478Z,5.10
2023-02-06T06:16:13.011Z,5.25
2023-02-06T06:21:14.500Z,5.13
2023-02-06T06:26:16.422Z,6.85
2023-02-06T06:31:18.066Z,7.30
2023-02-06T06:36:19.814Z,6.13
2023-02-06T06:41:21.243Z,6.72
2023-02-06T06:46:22.917Z,7.03
2023-02-06T06:51:26.646Z,5.95
2023-02-06T06:56:28.292Z,7.45
2023-02-06T07:01:29.717Z,6.70
2023-02-06T07:06:31.166Z,6.70
2023-02-06T07:11:32.600Z,7.25
2023-02-06T07:16:34.043Z,7.38
2023-02-06T07:21:35.771Z,6.70
2023-02-06T07:26:37.197Z,6.88
2023-02-06T07:31:38.796Z,6.50
2023-02-06T07:36:40.274Z,5.22
2023-02-06T07:41:42.813Z,6.18
2023-02-06T07:46:47.697Z,7.32
2023-02-06T07:51:49.175Z,7.20
2023-02-06T07:56:50.596Z,7.93
2023-02-06T08:01:52.540Z,8.02
2023-02-06T08:06:53.962Z,8.18
2023-02-06T08:11:55.401Z,8.13
2023-02-06T08:16:56.865Z,7.57
2023-02-06T08:21:58.434Z,6.47
2023-02-06T08:26:59.869Z,7.32
2023-02-06T08:32:01.980Z,9.88
2023-02-06T08:37:03.935Z,8.75
2023-02-06T08:42:05.393Z,8.60
2023-02-06T08:47:10.502Z,11.63
2023-02-06T08:52:12.139Z,12.77
2023-02-06T08:57:13.623Z,10.30
2023-02-06T09:02:15.114Z,11.07
2023-02-06T09:07:17.377Z,10.13
2023-02-06T09:12:18.909Z,9.85
2023-02-06T09:17:20.460Z,8.82
2023-02-06T09:22:22.102Z,10.52
2023-02-06T09:27:23.543Z,7.78
2023-02-06T09:32:25.010Z,11.20
2023-02-06T09:37:26.438Z,9.98
2023-02-06T09:42:31.857Z,9.95
2023-02-06T09:47:37.558Z,8.93
2023-02-06T09:52:53.469Z,13.27
2023-02-06T09:58:19.241Z,10.55
2023-02-06T10:03:45.482Z,13.43
2023-02-06T10:08:59.309Z,10.00
2023-02-06T10:14:05.519Z,10.65
2023-02-06T10:19:17.681Z,13.18
2023-02-06T10:24:32.561Z,12.07
2023-02-06T10:29:36.250Z,13.30
2023-02-06T10:35:00.568Z,13.45
2023-02-06T10:40:11.519Z,14.10
2023-02-06T10:45:36.426Z,11.45
2023-02-06T10:50:44.191Z,9.48
2023-02-06T10:55:55.453Z,10.15
2023-02-06T11:00:59.280Z,13.88
2023-02-06T11:06:02.135Z,6.03
2023-02-06T11:11:20.264Z,9.95
2023-02-06T11:16:27.325Z,14.73
2023-02-06T11:21:50.816Z,9.73
2023-02-06T11:26:57.589Z,17.20
2023-02-06T11:32:01.810Z,16.73
2023-02-06T11:37:06.237Z,9.85
2023-02-06T11:42:13.512Z,12.38
2023-02-06T11:47:37.731Z,15.20
2023-02-06T11:52:41.799Z,13.48
2023-02-06T11:57:43.373Z,18.70
2023-02-06T12:02:52.101Z,17.23
2023-02-06T12:07:56.683Z,19.88
2023-02-06T12:13:06.799Z,14.82
2023-02-06T12:18:27.476Z,16.25
2023-02-06T12:23:36.375Z,18.20
2023-02-06T12:33:54.708Z,18.13
2023-02-06T12:39:00.745Z,15.73
2023-02-06T12:44:11.365Z,18.92
2023-02-06T12:49:35.639Z,18.92
2023-02-06T12:54:53.822Z,8.45
2023-02-06T13:00:01.770Z,21.52
2023-02-06T13:05:17.308Z,18.45
2023-02-06T13:10:23.571Z,16.90
2023-02-06T13:15:36.103Z,16.60
2023-02-06T13:21:14.611Z,18.90
2023-02-06T13:26:16.496Z,15.15
2023-02-06T13:31:26.620Z,16.50
2023-02-06T13:36:44.017Z,16.88
2023-02-06T13:41:45.500Z,17.55
2023-02-06T13:47:34.660Z,18.65
2023-02-06T13:53:14.301Z,16.23
2023-02-06T13:58:45.672Z,14.20
2023-02-06T14:03:50.358Z,17.58
2023-02-06T14:09:03.704Z,16.35
2023-02-06T14:14:31.097Z,9.10
2023-02-06T14:19:54.411Z,12.52
2023-02-06T14:25:10.130Z,11.50
2023-02-06T14:30:33.086Z,14.07
2023-02-06T14:35:52.740Z,13.70
2023-02-06T14:40:56.971Z,12.32
2023-02-06T14:46:07.635Z,11.85
2023-02-06T14:51:41.890Z,11.57
2023-02-06T14:56:43.362Z,9.50
2023-02-06T15:01:48.269Z,11.48
2023-02-06T15:07:01.947Z,10.15
2023-02-06T15:12:18.220Z,9.52
2023-02-06T15:17:21.482Z,11.23
2023-02-06T15:22:27.751Z,12.05
2023-02-06T15:27:34.756Z,12.98
2023-02-06T15:32:39.852Z,10.98
2023-02-06T15:37:41.314Z,8.80
2023-02-06T15:42:43.132Z,10.77
2023-02-06T15:47:46.081Z,9.27
2023-02-06T15:52:48.140Z,8.57
2023-02-06T15:57:51.115Z,10.00
2023-02-06T16:02:56.572Z,10.73
2023-02-06T16:07:58.891Z,10.15
2023-02-06T16:13:01.906Z,9.55
2023-02-06T16:18:24.960Z,9.07
2023-02-06T16:23:30.734Z,6.18
2023-02-06T16:28:32.159Z,6.30
2023-02-06T16:33:38.357Z,9.18
2023-02-06T16:38:40.050Z,4.97
2023-02-06T16:43:42.091Z,6.82
2023-02-06T16:48:43.652Z,6.40
2023-02-06T16:53:48.113Z,9.68
2023-02-06T16:58:49.694Z,10.13
2023-02-06T17:03:52.640Z,10.07
2023-02-06T17:08:58.795Z,10.48
2023-02-06T17:14:00.242Z,9.90
2023-02-06T17:19:01.686Z,8.90
2023-02-06T17:24:03.231Z,6.78
2023-02-06T17:29:04.678Z,9.10
2023-02-06T17:34:06.245Z,9.75
2023-02-06T17:39:07.696Z,5.15
2023-02-06T17:44:09.162Z,6.47
2023-02-06T17:49:10.685Z,9.73
2023-02-06T17:54:12.492Z,11.23
2023-02-06T17:59:13.984Z,7.85
2023-02-06T18:04:19.502Z,9.27
2023-02-06T18:09:20.953Z,11.75
2023-02-06T18:14:22.394Z,11.45
2023-02-06T18:19:25.214Z,7.15
2023-02-06T18:24:26.649Z,9.75
2023-02-06T18:29:34.645Z,8.77
2023-02-06T18:34:45.397Z,9.60
2023-02-06T18:39:47.175Z,9.40
2023-02-06T18:44:48.617Z,11.63
2023-02-06T18:49:50.041Z,10.20
2023-02-06T18:54:51.496Z,9.07
2023-02-06T18:59:53.376Z,9.68
2023-02-06T19:04:57.616Z,9.77
2023-02-06T19:10:00.647Z,12.23
2023-02-06T19:15:02.100Z,9.77
2023-02-06T19:20:04.536Z,10.38
2023-02-06T19:25:10.942Z,5.72
2023-02-06T19:30:13.778Z,10.30
2023-02-06T19:35:15.488Z,5.78
2023-02-06T19:40:17.210Z,10.02
2023-02-06T19:45:18.693Z,8.88
2023-02-06T19:50:20.146Z,9.02
2023-02-06T19:55:21.578Z,7.10
2023-02-06T20:00:23.190Z,11.98
2023-02-06T20:05:27.102Z,6.80
2023-02-06T20:10:29.124Z,7.50
2023-02-06T20:15:31.945Z,12.27
2023-02-06T20:30:39.973Z,6.47
2023-02-06T20:35:44.677Z,9.82
2023-02-06T20:40:51.052Z,7.38
2023-02-06T20:45:52.507Z,9.07
2023-02-06T20:50:58.409Z,8.40
2023-02-06T20:55:59.859Z,9.38
2023-02-06T21:01:01.330Z,6.85
2023-02-06T21:06:02.797Z,7.75
2023-02-06T21:11:05.649Z,9.13
2023-02-06T21:21:11.365Z,6.38
2023-02-06T21:26:13.884Z,7.22
2023-02-06T21:31:18.812Z,7.13
2023-02-06T21:36:21.116Z,11.95
2023-02-06T21:41:22.777Z,8.65
2023-02-06T21:46:24.494Z,11.13
2023-02-06T21:51:26.512Z,8.73
2023-02-06T21:56:28.375Z,12.05
2023-02-06T22:01:33.342Z,13.00
2023-02-06T22:06:37.568Z,13.75
2023-02-06T22:11:39.735Z,13.57
2023-02-06T22:16:41.624Z,10.38
2023-02-06T22:21:43.138Z,11.90
2023-02-06T22:26:45.164Z,12.60
2023-02-06T22:31:48.311Z,12.90
2023-02-06T22:36:51.129Z,12.52
2023-02-06T22:46:54.147Z,12.43
2023-02-06T22:51:57.900Z,10.25
2023-02-06T22:56:59.328Z,10.88
2023-02-06T23:02:00.809Z,9.60
2023-02-06T23:07:02.373Z,13.32
2023-02-06T23:12:04.197Z,15.02
2023-02-06T23:17:05.633Z,10.82
2023-02-06T23:22:07.889Z,11.82
2023-02-06T23:27:09.384Z,13.68
2023-02-06T23:32:11.023Z,12.25
2023-02-06T23:37:12.504Z,11.45
2023-02-06T23:42:13.966Z,11.60
2023-02-06T23:47:15.384Z,12.90
2023-02-06T23:52:16.856Z,14.02
2023-02-06T23:57:18.359Z,13.90
